Time,TemperatureF,DewpointF,PressureIn,WindDirection,WindDirectionDegrees,WindSpeedMPH,WindSpeedGustMPH,Humidity,HourlyPrecipIn,Conditions,Clouds,dailyrainin,SoftwareType,DateUTC
2013-10-08 00:02:00,57.1,56.0,30.04,NNW,330,0.0,0.0,95,0.00,,,0.00,weatherlink.com 1.10,2013-10-08 05:02:00,
2013-10-08 00:17:00,56.8,55.0,30.04,NNW,330,0.0,0.0,94,0.00,,,0.00,weatherlink.com 1.10,2013-10-08 05:17:00,
2013-10-08 00:32:00,56.3,55.0,30.03,NNW,330,0.0,0.0,95,0.00,,,0.00,weatherlink.com 1.10,2013-10-08 05:32:00,
2013-10-08 00:47:00,56.0,55.0,30.03,NNW,330,0.0,0.0,95,0.00,,,0.00,weatherlink.com 1.10,2013-10-08 05:47:00,
2013-10-08 01:02:00,55.6,54.0,30.03,NNW,330,0.0,0.0,95,0.00,,,0.00,weatherlink.com 1.10,2013-10-08 06:02:00,
2013-10-08 01:17:00,55.5,54.0,30.03,NNW,330,0.0,0.0,96,0.00,,,0.00,weatherlink.com 1.10,2013-10-08 06:17:00,
2013-10-08 01:32:00,55.5,54.0,30.03,NNW,330,0.0,0.0,96,0.00,,,0.00,weatherlink.com 1.10,2013-10-08 06:32:00,
2013-10-08 01:47:00,55.4,54.0,30.02,NNW,330,0.0,0.0,96,0.00,,,0.00,weatherlink.com 1.10,2013-10-08 06:47:00,
2013-10-08 02:02:00,55.0,54.0,30.02,NNW,330,0.0,0.0,96,0.00,,,0.00,weatherlink.com 1.10,2013-10-08 07:02:00,
2013-10-08 02:17:00,54.8,54.0,30.02,NNW,330,0.0,0.0,96,0.00,,,0.00,weatherlink.com 1.10,2013-10-08 07:17:00,
2013-10-08 02:32:00,55.0,54.0,30.02,NNW,330,0.0,0.0,96,0.00,,,0.00,weatherlink.com 1.10,2013-10-08 07:32:00,
2013-10-08 02:47:00,54.6,54.0,30.02,NNW,330,0.0,0.0,96,0.00,,,0.00,weatherlink.com 1.10,2013-10-08 07:47:00,
2013-10-08 03:02:00,54.5,54.0,30.02,NNW,330,0.0,0.0,97,0.00,,,0.00,weatherlink.com 1.10,2013-10-08 08:02:00,
2013-10-08 03:17:00,54.3,54.0,30.02,NNW,330,0.0,0.0,97,0.00,,,0.00,weatherlink.com 1.10,2013-10-08 08:17:00,
2013-10-08 03:32:00,53.9,53.0,30.02,NNW,330,0.0,0.0,96,0.00,,,0.00,weatherlink.com 1.10,2013-10-08 08:32:00,
2013-10-08 03:47:00,53.5,52.0,30.01,NNW,330,0.0,0.0,96,0.00,,,0.00,weatherlink.com 1.10,2013-10-08 08:47:00,
2013-10-08 04:02:00,53.3,53.0,30.01,NNW,330,0.0,0.0,97,0.00,,,0.00,weatherlink.com 1.10,2013-10-08 09:02:00,
2013-10-08 04:17:00,53.4,53.0,30.01,NNW,330,0.0,0.0,97,0.00,,,0.00,weatherlink.com 1.10,2013-10-08 09:17:00,
2013-10-08 04:32:00,53.5,53.0,30.02,NNW,330,0.0,0.0,97,0.00,,,0.00,weatherlink.com 1.10,2013-10-08 09:32:00,
2013-10-08 04:47:00,53.2,52.0,30.02,NNW,330,0.0,0.0,97,0.00,,,0.00,weatherlink.com 1.10,2013-10-08 09:47:00,
2013-10-08 05:02:00,52.9,52.0,30.02,NNW,330,0.0,0.0,97,0.00,,,0.00,weatherlink.com 1.10,2013-10-08 10:02:00,
2013-10-08 05:17:00,53.0,52.0,30.02,NNW,330,0.0,0.0,97,0.00,,,0.00,weatherlink.com 1.10,2013-10-08 10:17:00,
2013-10-08 05:32:00,53.3,53.0,30.02,NNW,330,0.0,0.0,98,0.00,,,0.00,weatherlink.com 1.10,2013-10-08 10:32:00,
2013-10-08 05:47:00,53.6,53.0,30.02,NNW,330,0.0,0.0,98,0.00,,,0.00,weatherlink.com 1.10,2013-10-08 10:47:00,
2013-10-08 06:02:00,54.0,54.0,30.03,NNW,330,0.0,2.0,98,0.00,,,0.00,weatherlink.com 1.10,2013-10-08 11:02:00,
2013-10-08 06:17:00,54.1,54.0,30.03,NNW,330,0.0,1.0,98,0.00,,,0.00,weatherlink.com 1.10,2013-10-08 11:17:00,
2013-10-08 06:32:00,53.7,53.0,30.03,NNW,330,0.0,0.0,97,0.00,,,0.00,weatherlink.com 1.10,2013-10-08 11:32:00,
2013-10-08 06:47:00,53.4,53.0,30.03,NNW,330,0.0,0.0,97,0.00,,,0.00,weatherlink.com 1.10,2013-10-08 11:47:00,
2013-10-08 07:02:00,53.1,52.0,30.03,NNW,330,0.0,0.0,97,0.00,,,0.00,weatherlink.com 1.10,2013-10-08 12:02:00,
2013-10-08 07:17:00,53.0,53.0,30.03,NNW,330,0.0,0.0,98,0.00,,,0.00,weatherlink.com 1.10,2013-10-08 12:17:00,
2013-10-08 07:32:00,53.8,53.0,30.04,NNW,330,0.0,2.0,98,0.00,,,0.00,weatherlink.com 1.10,2013-10-08 12:32:00,
2013-10-08 07:47:00,55.1,55.0,30.04,NNW,330,1.0,1.0,98,0.00,,,0.00,weatherlink.com 1.10,2013-10-08 12:47:00,
2013-10-08 08:02:00,56.5,56.0,30.04,NE,34,0.0,3.0,98,0.00,,,0.00,weatherlink.com 1.10,2013-10-08 13:02:00,
2013-10-08 08:17:00,58.1,58.0,30.05,NE,46,3.0,3.0,98,0.00,,,0.00,weatherlink.com 1.10,2013-10-08 13:17:00,
2013-10-08 08:33:00,59.7,58.0,30.05,NE,51,0.0,3.0,95,0.00,,,0.00,weatherlink.com 1.10,2013-10-08 13:33:00,
2013-10-08 08:48:00,61.9,59.0,30.05,ENE,69,2.0,4.0,90,0.00,,,0.00,weatherlink.com 1.10,2013-10-08 13:48:00,
2013-10-08 09:03:00,63.8,60.0,30.05,ENE,57,1.0,4.0,87,0.00,,,0.00,weatherlink.com 1.10,2013-10-08 14:03:00,
2013-10-08 09:18:00,65.5,60.0,30.06,NE,47,4.0,5.0,82,0.00,,,0.00,weatherlink.com 1.10,2013-10-08 14:18:00,
2013-10-08 09:33:00,67.0,60.0,30.06,NE,35,4.0,5.0,79,0.00,,,0.00,weatherlink.com 1.10,2013-10-08 14:33:00,
2013-10-08 09:48:00,67.8,60.0,30.06,ENE,67,4.0,5.0,76,0.00,,,0.00,weatherlink.com 1.10,2013-10-08 14:48:00,
2013-10-08 10:03:00,69.0,60.0,30.06,NE,50,3.0,5.0,72,0.00,,,0.00,weatherlink.com 1.10,2013-10-08 15:03:00,
2013-10-08 10:18:00,70.7,60.0,30.06,NNE,31,2.0,4.0,68,0.00,,,0.00,weatherlink.com 1.10,2013-10-08 15:18:00,
2013-10-08 10:33:00,71.5,60.0,30.06,ENE,59,2.0,6.0,68,0.00,,,0.00,weatherlink.com 1.10,2013-10-08 15:33:00,
2013-10-08 10:48:00,71.1,59.0,30.06,East,91,3.0,7.0,66,0.00,,,0.00,weatherlink.com 1.10,2013-10-08 15:48:00,
2013-10-08 11:03:00,71.6,59.0,30.06,East,95,0.0,4.0,65,0.00,,,0.00,weatherlink.com 1.10,2013-10-08 16:03:00,
2013-10-08 11:18:00,73.6,60.0,30.06,ENE,65,1.0,5.0,62,0.00,,,0.00,weatherlink.com 1.10,2013-10-08 16:18:00,
2013-10-08 11:33:00,73.1,60.0,30.06,WSW,248,1.0,5.0,63,0.00,,,0.00,weatherlink.com 1.10,2013-10-08 16:33:00,
2013-10-08 11:48:00,74.2,60.0,30.05,ESE,102,0.0,3.0,61,0.00,,,0.00,weatherlink.com 1.10,2013-10-08 16:48:00,
2013-10-08 12:03:00,75.3,60.0,30.05,NE,38,3.0,6.0,60,0.00,,,0.00,weatherlink.com 1.10,2013-10-08 17:03:00,
2013-10-08 12:18:00,75.6,60.0,30.05,East,84,0.0,4.0,58,0.00,,,0.00,weatherlink.com 1.10,2013-10-08 17:18:00,
2013-10-08 12:33:00,75.8,59.0,30.04,WNW,300,3.0,6.0,57,0.00,,,0.00,weatherlink.com 1.10,2013-10-08 17:33:00,
2013-10-08 12:48:00,76.2,60.0,30.03,NNE,22,0.0,5.0,58,0.00,,,0.00,weatherlink.com 1.10,2013-10-08 17:48:00,
2013-10-08 13:03:00,75.8,60.0,30.02,NW,312,0.0,5.0,59,0.00,,,0.00,weatherlink.com 1.10,2013-10-08 18:03:00,
2013-10-08 13:18:00,76.5,60.0,30.02,NNE,24,0.0,4.0,56,0.00,,,0.00,weatherlink.com 1.10,2013-10-08 18:18:00,
2013-10-08 13:33:00,77.2,60.0,30.01,NNE,32,0.0,6.0,56,0.00,,,0.00,weatherlink.com 1.10,2013-10-08 18:33:00,
2013-10-08 13:48:00,77.9,60.0,30.00,NW,322,3.0,6.0,55,0.00,,,0.00,weatherlink.com 1.10,2013-10-08 18:48:00,
2013-10-08 14:03:00,79.1,59.0,30.00,NE,49,0.0,4.0,51,0.00,,,0.00,weatherlink.com 1.10,2013-10-08 19:03:00,
2013-10-08 14:18:00,78.3,59.0,29.99,WNW,297,3.0,7.0,52,0.00,,,0.00,weatherlink.com 1.10,2013-10-08 19:18:00,
2013-10-08 14:33:00,78.7,61.0,29.99,NNW,334,1.0,6.0,55,0.00,,,0.00,weatherlink.com 1.10,2013-10-08 19:33:00,
2013-10-08 14:49:00,79.9,60.0,29.98,NNW,332,2.0,7.0,51,0.00,,,0.00,weatherlink.com 1.10,2013-10-08 19:49:00,
2013-10-08 15:04:00,79.9,60.0,29.98,NW,313,2.0,7.0,50,0.00,,,0.00,weatherlink.com 1.10,2013-10-08 20:04:00,
2013-10-08 15:19:00,79.6,60.0,29.98,NE,44,3.0,7.0,52,0.00,,,0.00,weatherlink.com 1.10,2013-10-08 20:19:00,
2013-10-08 15:34:00,80.1,59.0,29.97,WNW,302,4.0,7.0,49,0.00,,,0.00,weatherlink.com 1.10,2013-10-08 20:34:00,
2013-10-08 15:49:00,80.4,60.0,29.97,NW,315,0.0,5.0,50,0.00,,,0.00,weatherlink.com 1.10,2013-10-08 20:49:00,
2013-10-08 16:04:00,80.5,60.0,29.97,NNW,331,0.0,6.0,50,0.00,,,0.00,weatherlink.com 1.10,2013-10-08 21:04:00,
2013-10-08 16:19:00,80.3,59.0,29.97,WNW,303,4.0,7.0,48,0.00,,,0.00,weatherlink.com 1.10,2013-10-08 21:19:00,
2013-10-08 16:34:00,80.3,60.0,29.96,NNW,328,0.0,4.0,50,0.00,,,0.00,weatherlink.com 1.10,2013-10-08 21:34:00,
2013-10-08 16:49:00,79.6,58.0,29.97,NW,325,1.0,5.0,48,0.00,,,0.00,weatherlink.com 1.10,2013-10-08 21:49:00,
2013-10-08 17:04:00,80.4,59.0,29.97,NNW,344,0.0,3.0,48,0.00,,,0.00,weatherlink.com 1.10,2013-10-08 22:04:00,
2013-10-08 17:19:00,79.9,60.0,29.97,NW,310,0.0,5.0,51,0.00,,,0.00,weatherlink.com 1.10,2013-10-08 22:19:00,
2013-10-08 17:34:00,79.7,59.0,29.96,NNE,15,0.0,4.0,49,0.00,,,0.00,weatherlink.com 1.10,2013-10-08 22:34:00,
2013-10-08 17:49:00,78.9,59.0,29.97,NE,40,0.0,3.0,50,0.00,,,0.00,weatherlink.com 1.10,2013-10-08 22:49:00,
2013-10-08 18:04:00,79.2,60.0,29.97,NE,40,0.0,1.0,52,0.00,,,0.00,weatherlink.com 1.10,2013-10-08 23:04:00,
2013-10-08 18:19:00,79.1,59.0,29.98,NE,40,0.0,1.0,51,0.00,,,0.00,weatherlink.com 1.10,2013-10-08 23:19:00,
2013-10-08 18:34:00,77.2,59.0,29.98,NE,40,0.0,0.0,53,0.00,,,0.00,weatherlink.com 1.10,2013-10-08 23:34:00,
2013-10-08 18:49:00,74.5,59.0,29.98,NE,40,0.0,0.0,58,0.00,,,0.00,weatherlink.com 1.10,2013-10-08 23:49:00,
2013-10-08 19:04:00,71.7,59.0,29.98,NE,40,0.0,0.0,65,0.00,,,0.00,weatherlink.com 1.10,2013-10-09 00:04:00,
2013-10-08 19:19:00,69.1,59.0,29.98,NE,40,0.0,0.0,71,0.00,,,0.00,weatherlink.com 1.10,2013-10-09 00:19:00,
2013-10-08 19:34:00,67.0,59.0,29.98,NE,40,0.0,0.0,76,0.00,,,0.00,weatherlink.com 1.10,2013-10-09 00:34:00,
2013-10-08 19:49:00,65.4,58.0,29.98,NE,40,0.0,0.0,78,0.00,,,0.00,weatherlink.com 1.10,2013-10-09 00:49:00,
2013-10-08 20:04:00,64.2,58.0,29.99,NE,40,0.0,0.0,81,0.00,,,0.00,weatherlink.com 1.10,2013-10-09 01:04:00,
2013-10-08 20:19:00,63.4,59.0,29.99,NE,40,0.0,0.0,84,0.00,,,0.00,weatherlink.com 1.10,2013-10-09 01:19:00,
2013-10-08 20:34:00,62.8,59.0,30.00,NE,40,0.0,0.0,87,0.00,,,0.00,weatherlink.com 1.10,2013-10-09 01:34:00,
2013-10-08 20:49:00,62.1,58.0,30.00,NE,40,0.0,0.0,86,0.00,,,0.00,weatherlink.com 1.10,2013-10-09 01:49:00,
2013-10-08 21:04:00,61.4,58.0,30.01,NE,41,0.0,2.0,87,0.00,,,0.00,weatherlink.com 1.10,2013-10-09 02:04:00,
2013-10-08 21:19:00,60.8,57.0,30.01,NE,41,0.0,0.0,88,0.00,,,0.00,weatherlink.com 1.10,2013-10-09 02:19:00,
2013-10-08 21:34:00,60.3,57.0,30.01,NE,41,0.0,0.0,89,0.00,,,0.00,weatherlink.com 1.10,2013-10-09 02:34:00,
2013-10-08 21:49:00,59.8,57.0,30.01,NE,41,0.0,0.0,90,0.00,,,0.00,weatherlink.com 1.10,2013-10-09 02:49:00,
2013-10-08 22:04:00,59.2,57.0,30.01,NE,41,0.0,0.0,91,0.00,,,0.00,weatherlink.com 1.10,2013-10-09 03:04:00,
2013-10-08 22:19:00,58.7,56.0,30.01,NE,41,0.0,0.0,92,0.00,,,0.00,weatherlink.com 1.10,2013-10-09 03:19:00,
2013-10-08 22:34:00,58.5,57.0,30.02,NE,41,0.0,0.0,93,0.00,,,0.00,weatherlink.com 1.10,2013-10-09 03:34:00,
2013-10-08 22:49:00,57.9,56.0,30.02,NE,41,0.0,0.0,93,0.00,,,0.00,weatherlink.com 1.10,2013-10-09 03:49:00,
2013-10-08 23:04:00,57.6,56.0,30.01,NE,41,0.0,0.0,93,0.00,,,0.00,weatherlink.com 1.10,2013-10-09 04:04:00,
2013-10-08 23:19:00,57.2,56.0,30.01,NE,41,0.0,0.0,94,0.00,,,0.00,weatherlink.com 1.10,2013-10-09 04:19:00,
2013-10-08 23:34:00,56.9,55.0,30.01,NE,41,0.0,0.0,94,0.00,,,0.00,weatherlink.com 1.10,2013-10-09 04:34:00,
2013-10-08 23:49:00,56.6,55.0,30.01,NE,41,0.0,0.0,95,0.00,,,0.00,weatherlink.com 1.10,2013-10-09 04:49:00,